Time;durP1;ratioP1;P1;durP2;ratioP2;P2;SDS_P1;SDS_P2;PMS_P1;PMS_P2;Temp;Humidity;BMP_temperature;BMP_pressure;BME280_temperature;BME280_humidity;BME280_pressure;Samples;Min_cycle;Max_cycle;Signal;HPM_P1;HPM_P2
2023/06/24 00:01:28;;;;;;;31.40;6.60;;;20.10;99.90;;;;;;5096011;28;20169;-46
2023/06/24 00:03:54;;;;;;;32.47;6.18;;;20.20;99.90;;;;;;5095223;28;20193;-46
2023/06/24 00:06:20;;;;;;;21.00;6.00;;;20.20;99.90;;;;;;5095792;28;20172;-46
2023/06/24 00:08:46;;;;;;;23.42;6.80;;;20.20;99.90;;;;;;5095365;28;20251;-46
2023/06/24 00:11:15;;;;;;;20.70;6.45;;;20.20;99.90;;;;;;5095445;28;20193;-45
2023/06/24 00:13:42;;;;;;;28.08;6.00;;;20.20;99.90;;;;;;5095484;28;20697;-46
2023/06/24 00:16:08;;;;;;;25.30;5.68;;;20.20;99.90;;;;;;5095624;28;20174;-46
2023/06/24 00:18:34;;;;;;;19.30;5.55;;;;;;;;;;5095779;28;20165;-46
2023/06/24 00:21:01;;;;;;;22.85;5.22;;;20.10;99.90;;;;;;5095792;28;20177;-46
2023/06/24 00:23:28;;;;;;;21.10;5.65;;;20.10;99.90;;;;;;5095237;28;20291;-45
2023/06/24 00:25:54;;;;;;;20.02;7.50;;;20.10;99.90;;;;;;5095169;28;20162;-48
2023/06/24 00:28:20;;;;;;;19.23;7.80;;;20.10;99.90;;;;;;5095384;28;20180;-47
2023/06/24 00:30:49;;;;;;;18.55;8.25;;;20.10;99.90;;;;;;5095104;28;20211;-46
2023/06/24 00:33:16;;;;;;;19.75;7.70;;;20.20;99.90;;;;;;5095106;28;20637;-46
2023/06/24 00:35:42;;;;;;;19.25;7.15;;;20.10;99.90;;;;;;5095251;28;20256;-46
2023/06/24 00:38:09;;;;;;;16.50;7.60;;;20.20;99.90;;;;;;5095277;28;20173;-46
2023/06/24 00:40:35;;;;;;;23.10;6.60;;;;;;;;;;5094936;28;20520;-46
2023/06/24 00:43:01;;;;;;;20.05;6.75;;;20.00;99.90;;;;;;5077462;28;20166;-46
2023/06/24 00:45:27;;;;;;;29.05;7.75;;;19.90;99.90;;;;;;5095112;28;20184;-46
2023/06/24 00:47:55;;;;;;;24.20;6.72;;;19.90;99.90;;;;;;5094713;28;20173;-46
2023/06/24 00:50:21;;;;;;;17.27;6.38;;;19.90;99.90;;;;;;5094691;28;20256;-46
2023/06/24 00:52:47;;;;;;;16.02;5.35;;;19.80;99.90;;;;;;5094899;28;20287;-46
2023/06/24 00:55:15;;;;;;;30.95;6.32;;;19.80;99.90;;;;;;5094921;28;20170;-46
2023/06/24 00:57:44;;;;;;;12.63;6.55;;;19.80;99.90;;;;;;5094643;28;20197;-46
2023/06/24 01:00:16;;;;;;;18.95;6.15;;;19.70;99.90;;;;;;5094822;28;20177;-46
2023/06/24 01:02:42;;;;;;;18.17;5.55;;;19.70;99.90;;;;;;5094780;28;20230;-47
2023/06/24 01:05:10;;;;;;;20.08;6.43;;;19.70;99.90;;;;;;5094490;28;20176;-47
2023/06/24 01:07:37;;;;;;;15.23;5.95;;;19.70;99.90;;;;;;5094360;28;20199;-47
2023/06/24 01:10:07;;;;;;;13.13;6.30;;;19.60;99.90;;;;;;5094749;28;20165;-46
2023/06/24 01:12:40;;;;;;;23.33;6.95;;;19.70;99.90;;;;;;5094898;28;20216;-47
2023/06/24 01:15:10;;;;;;;26.05;6.68;;;19.60;99.90;;;;;;5094548;28;20171;-46
2023/06/24 01:17:50;;;;;;;21.23;7.60;;;19.50;99.90;;;;;;5094217;28;20172;-46
2023/06/24 01:20:39;;;;;;;25.92;7.20;;;19.50;99.90;;;;;;5094179;28;20172;-46
2023/06/24 01:23:23;;;;;;;17.77;7.10;;;;;;;;;;5094056;28;20174;-47
2023/06/24 01:26:21;;;;;;;22.50;7.43;;;19.50;99.90;;;;;;5094074;28;20648;-46
2023/06/24 01:29:14;;;;;;;19.77;6.72;;;19.50;99.90;;;;;;5093975;28;20230;-46
2023/06/24 01:32:11;;;;;;;15.60;6.35;;;19.40;99.90;;;;;;5093842;28;20254;-45
2023/06/24 01:34:39;;;;;;;16.35;7.10;;;19.50;99.90;;;;;;5093943;28;20172;-45
2023/06/24 01:37:17;;;;;;;15.80;6.40;;;19.30;99.90;;;;;;5093832;28;20196;-46
2023/06/24 01:39:50;;;;;;;23.20;7.35;;;19.20;99.90;;;;;;5093661;28;20175;-46
2023/06/24 01:42:19;;;;;;;19.08;6.93;;;19.00;99.90;;;;;;5093717;28;20180;-45
2023/06/24 01:44:48;;;;;;;18.67;7.28;;;19.20;99.90;;;;;;5093930;28;20249;-46
2023/06/24 01:47:23;;;;;;;21.58;6.90;;;19.10;99.90;;;;;;5093732;28;20214;-45
2023/06/24 01:49:52;;;;;;;23.10;6.75;;;19.00;99.90;;;;;;5093637;28;20164;-46
2023/06/24 01:52:20;;;;;;;19.42;6.88;;;19.10;99.90;;;;;;5093745;28;20600;-45
2023/06/24 01:54:49;;;;;;;22.23;7.35;;;19.20;99.90;;;;;;5093540;28;20613;-45
2023/06/24 01:57:16;;;;;;;14.27;6.63;;;19.10;99.90;;;;;;5093465;28;20227;-45
2023/06/24 01:59:45;;;;;;;22.38;7.13;;;19.00;99.90;;;;;;5093424;28;20256;-45
2023/06/24 02:02:12;;;;;;;18.55;7.57;;;19.20;99.90;;;;;;5093389;28;20173;-46
2023/06/24 02:04:39;;;;;;;18.40;7.03;;;19.20;99.90;;;;;;5093291;28;20562;-46
2023/06/24 02:07:06;;;;;;;17.30;9.32;;;19.10;99.90;;;;;;5093433;28;20173;-46
2023/06/24 02:09:33;;;;;;;75.60;41.05;;;19.20;99.90;;;;;;5093398;28;20220;-46
2023/06/24 02:12:01;;;;;;;49.08;25.35;;;19.40;99.90;;;;;;5093094;28;20201;-46
2023/06/24 02:14:28;;;;;;;27.00;13.38;;;19.20;99.90;;;;;;5093135;28;20161;-46
2023/06/24 02:16:57;;;;;;;12.65;7.88;;;19.40;99.90;;;;;;5093049;28;20252;-46
2023/06/24 02:19:26;;;;;;;11.02;7.47;;;19.20;99.90;;;;;;5092393;28;20194;-45
2023/06/24 02:21:52;;;;;;;14.18;6.90;;;19.10;99.90;;;;;;5092968;28;20173;-46
2023/06/24 02:24:19;;;;;;;12.23;6.47;;;18.90;99.90;;;;;;5093188;28;20260;-46
2023/06/24 02:26:45;;;;;;;10.63;6.57;;;19.10;99.90;;;;;;5092852;28;20161;-46
2023/06/24 02:29:13;;;;;;;16.15;6.80;;;18.70;99.90;;;;;;5092854;28;20679;-46
2023/06/24 02:31:38;;;;;;;11.52;6.85;;;18.80;99.90;;;;;;5074709;28;20673;-46
2023/06/24 02:34:04;;;;;;;9.23;6.40;;;;;;;;;;5092900;28;20165;-46
2023/06/24 02:36:30;;;;;;;13.68;6.63;;;18.90;99.90;;;;;;5093155;28;20179;-46
2023/06/24 02:38:55;;;;;;;16.60;6.57;;;18.70;99.90;;;;;;5092914;28;20161;-46
2023/06/24 02:41:21;;;;;;;14.77;5.97;;;18.80;99.90;;;;;;5092536;28;20253;-46
2023/06/24 02:43:47;;;;;;;15.30;6.57;;;18.80;99.90;;;;;;5092584;28;20201;-45
2023/06/24 02:46:14;;;;;;;21.77;6.65;;;18.70;99.90;;;;;;5092499;28;20244;-45
2023/06/24 02:48:40;;;;;;;28.17;7.60;;;18.90;99.90;;;;;;5092508;28;20173;-46
2023/06/24 02:51:07;;;;;;;17.40;6.72;;;18.80;99.90;;;;;;5092583;28;20173;-45
2023/06/24 02:53:34;;;;;;;20.58;6.95;;;;;;;;;;5092990;28;20702;-45
2023/06/24 02:56:00;;;;;;;19.92;6.82;;;19.00;99.90;;;;;;5093010;28;20177;-45
2023/06/24 02:58:31;;;;;;;18.77;6.97;;;;;;;;;;5092326;28;20209;-46
2023/06/24 03:01:02;;;;;;;14.73;6.95;;;18.80;99.90;;;;;;5092564;28;20181;-46
2023/06/24 03:03:28;;;;;;;18.65;6.75;;;18.70;99.90;;;;;;5092311;28;20694;-46
2023/06/24 03:05:56;;;;;;;14.48;7.05;;;18.70;99.90;;;;;;5092141;28;20166;-46
2023/06/24 03:08:24;;;;;;;18.98;7.65;;;18.60;99.90;;;;;;5092119;28;20221;-46
2023/06/24 03:10:50;;;;;;;18.83;8.55;;;18.30;99.90;;;;;;5092118;28;20162;-46
2023/06/24 03:13:16;;;;;;;25.75;9.38;;;18.30;99.90;;;;;;5091959;28;20201;-46
2023/06/24 03:15:41;;;;;;;24.85;14.77;;;18.70;99.90;;;;;;5092024;28;20522;-46
2023/06/24 03:18:07;;;;;;;22.15;11.00;;;18.70;99.90;;;;;;5091981;28;20651;-46
2023/06/24 03:20:38;;;;;;;17.70;8.68;;;18.60;99.90;;;;;;5092346;28;20664;-45
2023/06/24 03:23:06;;;;;;;24.42;9.07;;;18.60;99.90;;;;;;5091924;28;20161;-51
2023/06/24 03:25:33;;;;;;;23.23;9.52;;;18.50;99.90;;;;;;5092357;28;20244;-49
2023/06/24 03:28:00;;;;;;;40.50;10.00;;;18.40;99.90;;;;;;5092547;28;20177;-46
2023/06/24 03:30:26;;;;;;;23.17;9.32;;;;;;;;;;5091240;28;20272;-49
2023/06/24 03:32:52;;;;;;;22.90;8.90;;;18.50;99.90;;;;;;5091836;28;20548;-47
2023/06/24 03:35:18;;;;;;;16.27;8.00;;;18.60;99.90;;;;;;5091764;28;20165;-49
2023/06/24 03:37:44;;;;;;;25.08;9.32;;;18.30;99.90;;;;;;5091707;28;20255;-46
2023/06/24 03:40:10;;;;;;;24.65;10.25;;;18.30;99.90;;;;;;5091725;28;20242;-47
2023/06/24 03:42:35;;;;;;;20.13;9.23;;;18.50;99.90;;;;;;5091824;28;20238;-46
2023/06/24 03:45:03;;;;;;;30.50;11.65;;;18.60;99.90;;;;;;5092097;28;20216;-46
2023/06/24 03:47:29;;;;;;;16.50;10.25;;;18.50;99.90;;;;;;5091957;28;20254;-46
2023/06/24 03:49:54;;;;;;;19.30;9.80;;;18.60;99.90;;;;;;5091617;28;20203;-46
2023/06/24 03:52:20;;;;;;;21.50;10.23;;;18.60;99.90;;;;;;5091459;28;20246;-46
2023/06/24 03:54:46;;;;;;;14.20;8.70;;;18.70;99.90;;;;;;5090956;28;20158;-46
2023/06/24 03:57:12;;;;;;;20.13;10.15;;;18.70;99.90;;;;;;5091776;28;20284;-46
2023/06/24 03:59:38;;;;;;;18.95;9.40;;;18.30;99.90;;;;;;5091526;28;20578;-46
2023/06/24 04:02:07;;;;;;;12.38;9.02;;;;;;;;;;5073468;28;20173;-46
2023/06/24 04:04:33;;;;;;;18.10;9.27;;;;;;;;;;5092135;28;20177;-45
2023/06/24 04:06:59;;;;;;;25.15;8.73;;;18.70;99.90;;;;;;5091780;28;20604;-46
2023/06/24 04:09:24;;;;;;;21.23;8.32;;;18.70;99.90;;;;;;5091193;28;20217;-46
2023/06/24 04:11:50;;;;;;;18.08;9.65;;;18.80;99.90;;;;;;5091337;28;20197;-47
2023/06/24 04:14:15;;;;;;;20.20;9.57;;;18.80;99.90;;;;;;5091331;28;20205;-45
2023/06/24 04:16:41;;;;;;;18.10;9.15;;;18.90;99.90;;;;;;5073248;28;20165;-46
2023/06/24 04:19:06;;;;;;;20.38;8.23;;;19.00;99.90;;;;;;5091265;28;20162;-45
2023/06/24 04:21:32;;;;;;;23.55;8.98;;;19.00;99.90;;;;;;5091517;28;20169;-46
2023/06/24 04:23:57;;;;;;;20.73;8.00;;;19.00;99.90;;;;;;5091287;28;20218;-45
2023/06/24 04:26:23;;;;;;;20.23;7.65;;;19.00;99.90;;;;;;5091067;28;20193;-46
2023/06/24 04:28:49;;;;;;;30.65;8.68;;;19.10;99.90;;;;;;5091213;28;20169;-45
2023/06/24 04:31:14;;;;;;;21.20;7.43;;;19.10;99.90;;;;;;5091184;28;20165;-45
2023/06/24 04:33:40;;;;;;;20.65;7.95;;;19.30;99.90;;;;;;5091180;28;20248;-45
2023/06/24 04:36:05;;;;;;;17.60;8.57;;;19.30;99.90;;;;;;5091165;28;20262;-46
2023/06/24 04:38:31;;;;;;;17.17;8.13;;;19.60;99.90;;;;;;5091651;28;20230;-45
2023/06/24 04:40:59;;;;;;;18.25;7.55;;;19.50;99.90;;;;;;5091166;28;20177;-45
2023/06/24 04:43:24;;;;;;;18.58;7.22;;;;;;;;;;5094273;28;20169;-45
2023/06/24 04:45:50;;;;;;;15.10;7.65;;;19.60;99.90;;;;;;5094700;28;20161;-46
2023/06/24 04:48:16;;;;;;;18.60;7.72;;;19.90;99.90;;;;;;5094747;28;20170;-46
2023/06/24 04:50:41;;;;;;;20.45;7.70;;;20.00;99.90;;;;;;5094702;28;20173;-46
2023/06/24 04:53:07;;;;;;;17.25;7.15;;;20.00;99.90;;;;;;5094581;28;20208;-46
2023/06/24 04:55:33;;;;;;;18.95;8.77;;;;;;;;;;5095188;28;20219;-46
2023/06/24 04:57:58;;;;;;;17.20;7.80;;;20.10;99.90;;;;;;5094991;28;20629;-46
2023/06/24 05:00:24;;;;;;;16.25;8.45;;;19.90;99.90;;;;;;5094612;28;20184;-46
2023/06/24 05:02:50;;;;;;;24.38;8.52;;;20.10;99.90;;;;;;5094468;28;20173;-46
2023/06/24 05:05:15;;;;;;;16.95;7.80;;;20.20;99.90;;;;;;5094696;28;20298;-46
2023/06/24 05:07:41;;;;;;;15.98;8.45;;;20.10;99.90;;;;;;5094311;28;20676;-46
2023/06/24 05:10:07;;;;;;;16.75;9.35;;;20.00;99.90;;;;;;5094227;28;20219;-46
2023/06/24 05:12:33;;;;;;;15.40;9.23;;;;;;;;;;5094603;28;20201;-46
2023/06/24 05:14:58;;;;;;;16.67;9.27;;;19.80;99.90;;;;;;5094873;28;20166;-46
2023/06/24 05:17:24;;;;;;;21.77;10.18;;;19.90;99.90;;;;;;5094480;28;20706;-46
2023/06/24 05:19:49;;;;;;;14.32;9.60;;;19.80;99.90;;;;;;5094165;28;20663;-46
2023/06/24 05:22:15;;;;;;;14.60;9.65;;;19.90;99.90;;;;;;5094125;28;20520;-46
2023/06/24 05:24:41;;;;;;;14.07;9.65;;;19.80;99.90;;;;;;5094098;28;20180;-46
2023/06/24 05:27:07;;;;;;;12.75;9.95;;;20.10;99.90;;;;;;5094357;28;20170;-46
2023/06/24 05:29:33;;;;;;;12.38;9.68;;;20.00;99.90;;;;;;5093937;28;20532;-47
2023/06/24 05:32:01;;;;;;;11.85;9.38;;;20.20;99.90;;;;;;5094359;28;20657;-46
2023/06/24 05:34:27;;;;;;;15.27;9.57;;;20.10;99.90;;;;;;5093923;28;20677;-46
2023/06/24 05:36:52;;;;;;;15.07;9.50;;;20.10;99.90;;;;;;5093835;28;20245;-46
2023/06/24 05:39:18;;;;;;;12.55;9.13;;;20.30;99.90;;;;;;5093787;28;20165;-46
2023/06/24 05:41:43;;;;;;;12.73;8.60;;;20.10;99.90;;;;;;5093734;28;20173;-46
2023/06/24 05:44:12;;;;;;;21.50;9.25;;;20.40;99.90;;;;;;5093696;28;20319;-46
2023/06/24 05:46:38;;;;;;;12.95;9.43;;;20.50;99.90;;;;;;5093692;28;20173;-46
2023/06/24 05:49:03;;;;;;;14.45;8.93;;;20.50;99.90;;;;;;5093552;28;20158;-46
2023/06/24 05:51:29;;;;;;;12.85;9.02;;;20.40;99.90;;;;;;5093940;28;20209;-46
2023/06/24 05:53:55;;;;;;;12.40;8.23;;;20.70;99.90;;;;;;5092518;28;20181;-46
2023/06/24 05:56:22;;;;;;;12.10;9.00;;;;;;;;;;5093510;28;20249;-46
2023/06/24 05:58:48;;;;;;;12.85;8.57;;;20.70;99.90;;;;;;5093509;28;20271;-46
2023/06/24 06:01:14;;;;;;;13.90;8.55;;;;;;;;;;5093298;28;20172;-46
2023/06/24 06:03:40;;;;;;;12.90;7.78;;;20.90;99.90;;;;;;5075203;28;20173;-46
2023/06/24 06:06:06;;;;;;;15.77;8.63;;;20.80;99.90;;;;;;5093502;28;20507;-46
2023/06/24 06:08:32;;;;;;;14.15;8.20;;;;;;;;;;5093549;28;20243;-46
2023/06/24 06:10:58;;;;;;;11.50;7.57;;;21.30;99.90;;;;;;5093856;28;20161;-46
2023/06/24 06:13:24;;;;;;;8.88;7.38;;;21.40;99.90;;;;;;5093287;28;20259;-46
2023/06/24 06:15:50;;;;;;;11.18;7.40;;;;;;;;;;5093136;28;20210;-46
2023/06/24 06:18:15;;;;;;;9.65;7.95;;;21.60;99.90;;;;;;5093060;28;20176;-46
2023/06/24 06:20:41;;;;;;;9.07;7.93;;;21.40;99.90;;;;;;5092957;28;20510;-46
2023/06/24 06:23:07;;;;;;;10.95;8.02;;;21.60;99.90;;;;;;5092972;28;20193;-46
2023/06/24 06:25:33;;;;;;;15.85;7.90;;;;;;;;;;5092983;28;20161;-46
2023/06/24 06:27:59;;;;;;;10.73;7.63;;;21.60;99.90;;;;;;5093321;28;20189;-46
2023/06/24 06:30:24;;;;;;;9.60;7.97;;;21.90;99.90;;;;;;5092879;28;20628;-46
2023/06/24 06:32:50;;;;;;;11.75;8.35;;;21.70;99.90;;;;;;5092701;28;20215;-46
2023/06/24 06:35:15;;;;;;;9.95;7.75;;;21.90;99.90;;;;;;5092806;28;20176;-46
2023/06/24 06:37:41;;;;;;;8.77;7.75;;;21.90;99.90;;;;;;5092740;28;20177;-46
2023/06/24 06:40:08;;;;;;;13.50;8.13;;;21.90;99.90;;;;;;5092604;28;20176;-46
2023/06/24 06:42:34;;;;;;;8.70;7.68;;;22.10;99.90;;;;;;5092668;28;20663;-46
2023/06/24 06:44:59;;;;;;;12.55;7.68;;;22.00;99.90;;;;;;5092887;28;20236;-47
2023/06/24 06:47:25;;;;;;;9.07;7.72;;;22.20;99.90;;;;;;5092806;28;20253;-46
2023/06/24 06:49:51;;;;;;;9.25;8.35;;;22.30;99.90;;;;;;5092746;28;20169;-46
2023/06/24 06:52:16;;;;;;;10.65;8.55;;;21.90;99.90;;;;;;5092372;28;20205;-50
2023/06/24 06:54:42;;;;;;;12.50;7.30;;;21.70;99.90;;;;;;5092406;28;20648;-50
2023/06/24 06:57:07;;;;;;;12.75;8.10;;;22.00;99.90;;;;;;5092639;28;20624;-50
2023/06/24 06:59:33;;;;;;;10.35;8.00;;;22.10;99.90;;;;;;5092236;28;20248;-50
2023/06/24 07:01:59;;;;;;;10.70;7.78;;;;;;;;;;5092630;28;20173;-50
2023/06/24 07:04:24;;;;;;;11.90;8.57;;;22.40;99.90;;;;;;5091953;28;20244;-50
2023/06/24 07:06:50;;;;;;;12.23;9.10;;;22.50;99.90;;;;;;5092170;28;20252;-50
2023/06/24 07:09:16;;;;;;;11.25;8.35;;;22.20;99.90;;;;;;5091981;28;20616;-50
2023/06/24 07:11:43;;;;;;;8.27;7.47;;;22.30;99.90;;;;;;5091966;28;20200;-51
2023/06/24 07:14:08;;;;;;;10.02;7.07;;;22.20;99.90;;;;;;5092076;28;20253;-50
2023/06/24 07:16:34;;;;;;;9.70;7.85;;;22.60;99.90;;;;;;5091963;28;20192;-50
2023/06/24 07:19:00;;;;;;;8.40;7.57;;;22.40;99.90;;;;;;5074203;28;20220;-49
2023/06/24 07:21:25;;;;;;;11.43;7.55;;;22.30;99.90;;;;;;5091920;28;20177;-50
2023/06/24 07:23:51;;;;;;;11.10;7.68;;;22.80;99.90;;;;;;5091940;28;20165;-50
2023/06/24 07:26:16;;;;;;;7.95;6.90;;;22.90;99.90;;;;;;5091966;28;20169;-50
2023/06/24 07:28:42;;;;;;;10.32;7.90;;;22.90;99.90;;;;;;5092094;28;20539;-50
2023/06/24 07:31:07;;;;;;;8.65;7.72;;;22.70;99.90;;;;;;5091652;28;20165;-49
2023/06/24 07:33:33;;;;;;;11.40;7.28;;;23.00;99.90;;;;;;5091763;28;20219;-49
2023/06/24 07:35:59;;;;;;;9.70;7.15;;;;;;;;;;5092163;28;20169;-50
2023/06/24 07:38:25;;;;;;;10.48;6.85;;;23.10;99.90;;;;;;5091675;28;20188;-47
2023/06/24 07:40:50;;;;;;;10.10;7.15;;;23.40;99.90;;;;;;5091765;28;20183;-46
2023/06/24 07:43:16;;;;;;;9.63;7.00;;;;;;;;;;5091446;28;20244;-50
2023/06/24 07:45:43;;;;;;;9.65;7.22;;;23.40;99.90;;;;;;5091565;28;20173;-50
2023/06/24 07:48:09;;;;;;;10.40;7.68;;;23.50;99.90;;;;;;5091565;28;20173;-49
2023/06/24 07:50:35;;;;;;;11.32;7.55;;;23.70;99.90;;;;;;5091558;28;20256;-50
2023/06/24 07:53:02;;;;;;;9.50;7.05;;;;;;;;;;5092147;28;20231;-49
2023/06/24 07:55:27;;;;;;;11.40;7.60;;;24.00;99.90;;;;;;5092168;28;20196;-46
2023/06/24 07:57:53;;;;;;;8.55;7.53;;;24.20;99.90;;;;;;5091506;28;20203;-46
2023/06/24 08:00:18;;;;;;;9.18;7.35;;;24.50;99.90;;;;;;5091551;28;20173;-46
2023/06/24 08:02:44;;;;;;;8.63;6.85;;;24.40;99.90;;;;;;5091749;28;20164;-46
2023/06/24 08:05:10;;;;;;;9.98;6.78;;;;;;;;;;5091509;28;20275;-46
2023/06/24 08:07:37;;;;;;;7.38;6.60;;;24.10;99.90;;;;;;5091238;28;20617;-47
2023/06/24 08:10:02;;;;;;;7.85;6.22;;;24.00;99.90;;;;;;5091644;28;20196;-47
2023/06/24 08:12:28;;;;;;;11.05;7.30;;;24.00;99.90;;;;;;5091665;28;20308;-50
2023/06/24 08:14:54;;;;;;;10.23;7.00;;;24.30;99.90;;;;;;5091619;28;20165;-50
2023/06/24 08:17:20;;;;;;;11.27;7.57;;;;;;;;;;5093173;28;20210;-50
2023/06/24 08:19:45;;;;;;;9.20;7.15;;;24.00;99.90;;;;;;5095354;28;20169;-48
2023/06/24 08:22:11;;;;;;;10.70;6.95;;;24.30;99.90;;;;;;5095545;28;20172;-49
2023/06/24 08:24:36;;;;;;;9.00;7.72;;;24.50;99.90;;;;;;5095260;28;20595;-49
2023/06/24 08:27:03;;;;;;;13.52;7.35;;;;;;;;;;5095118;28;20623;-46
2023/06/24 08:29:28;;;;;;;13.10;7.93;;;24.70;99.90;;;;;;5095511;28;20639;-48
2023/06/24 08:31:54;;;;;;;12.20;9.02;;;24.50;99.90;;;;;;5094994;28;20201;-47
2023/06/24 08:34:19;;;;;;;11.35;8.13;;;24.70;99.90;;;;;;5095110;28;20180;-46
2023/06/24 08:36:45;;;;;;;14.90;8.13;;;24.80;99.90;;;;;;5095058;28;20205;-46
2023/06/24 08:39:10;;;;;;;12.25;9.10;;;24.80;99.90;;;;;;5095040;28;20173;-46
2023/06/24 08:41:36;;;;;;;12.73;8.63;;;24.80;99.90;;;;;;5094918;28;20194;-46
2023/06/24 08:44:02;;;;;;;8.82;7.93;;;25.00;99.90;;;;;;5094895;28;20184;-46
2023/06/24 08:46:30;;;;;;;16.38;9.02;;;24.90;99.90;;;;;;5095508;28;20173;-46
2023/06/24 08:49:03;;;;;;;15.27;9.52;;;;;;;;;;5094776;28;20161;-46
2023/06/24 08:51:31;;;;;;;10.73;8.98;;;;;;;;;;5095121;28;20622;-46
2023/06/24 08:53:58;;;;;;;11.50;9.98;;;25.30;99.90;;;;;;5095135;28;20177;-46
2023/06/24 08:56:24;;;;;;;12.68;9.45;;;25.20;99.90;;;;;;5094621;28;20257;-46
2023/06/24 08:58:51;;;;;;;11.50;9.35;;;25.40;99.90;;;;;;5094550;28;20189;-46
2023/06/24 09:01:17;;;;;;;11.73;10.07;;;25.40;99.90;;;;;;5094896;28;20164;-46
2023/06/24 09:03:43;;;;;;;11.57;9.07;;;25.50;99.90;;;;;;5094548;28;20169;-46
2023/06/24 09:06:09;;;;;;;10.60;8.95;;;;;;;;;;5094394;28;20169;-47
2023/06/24 09:08:35;;;;;;;13.70;8.73;;;25.80;99.90;;;;;;5094247;28;20213;-46
2023/06/24 09:11:01;;;;;;;12.02;9.40;;;25.90;99.90;;;;;;5095034;28;20169;-47
2023/06/24 09:13:36;;;;;;;15.23;11.00;;;25.80;99.90;;;;;;5094919;28;20733;-47
2023/06/24 09:16:13;;;;;;;14.23;9.13;;;26.00;99.90;;;;;;5094460;28;20172;-46
2023/06/24 09:18:39;;;;;;;10.90;8.75;;;25.70;99.90;;;;;;5094358;28;20179;-47
2023/06/24 09:21:04;;;;;;;10.68;8.63;;;25.50;99.90;;;;;;5094149;28;20168;-46
2023/06/24 09:23:35;;;;;;;14.52;8.48;;;25.80;99.90;;;;;;5094696;28;20226;-47
2023/06/24 09:26:01;;;;;;;13.10;8.85;;;;;;;;;;5094540;28;20160;-46
2023/06/24 09:28:27;;;;;;;9.73;8.13;;;25.90;99.90;;;;;;5094435;28;20176;-46
2023/06/24 09:31:09;;;;;;;9.80;8.27;;;25.80;99.90;;;;;;5094206;28;20173;-46
2023/06/24 09:33:36;;;;;;;13.05;7.25;;;;;;;;;;5093840;28;20675;-46
2023/06/24 09:36:05;;;;;;;10.15;8.35;;;26.00;99.90;;;;;;5094121;28;20204;-46
2023/06/24 09:38:36;;;;;;;10.65;7.72;;;26.20;99.90;;;;;;5094204;28;20523;-47
2023/06/24 09:41:05;;;;;;;8.45;6.15;;;26.20;99.90;;;;;;5093924;28;20163;-47
2023/06/24 09:43:35;;;;;;;8.63;5.80;;;26.10;99.90;;;;;;5094094;28;20237;-46
2023/06/24 09:46:02;;;;;;;7.57;4.75;;;;;;;;;;5075774;28;20169;-46
2023/06/24 09:48:27;;;;;;;10.77;4.55;;;26.00;99.90;;;;;;5094066;28;20185;-47
2023/06/24 09:50:58;;;;;;;7.32;5.25;;;26.00;99.90;;;;;;5093541;28;20254;-46
2023/06/24 09:53:24;;;;;;;7.22;4.97;;;25.90;99.90;;;;;;5093471;28;20349;-49
2023/06/24 09:55:54;;;;;;;4.68;4.28;;;;;;;;;;5093529;28;20644;-48
2023/06/24 09:58:20;;;;;;;6.88;4.68;;;;;;;;;;5093515;28;20172;-48
2023/06/24 10:00:46;;;;;;;4.78;4.35;;;26.10;99.90;;;;;;5093249;28;20161;-49
2023/06/24 10:03:12;;;;;;;6.55;4.55;;;;;;;;;;5092954;28;20184;-50
2023/06/24 10:05:38;;;;;;;6.45;3.90;;;26.30;99.90;;;;;;5093166;28;20153;-51
2023/06/24 10:08:05;;;;;;;7.75;4.38;;;26.10;99.90;;;;;;5093058;28;20212;-50
2023/06/24 10:10:31;;;;;;;7.40;4.47;;;;;;;;;;5093762;28;20168;-48
2023/06/24 10:12:57;;;;;;;9.95;4.65;;;26.60;99.90;;;;;;5093427;28;20212;-49
2023/06/24 10:15:23;;;;;;;8.73;5.30;;;26.80;99.90;;;;;;5093166;28;20570;-47
2023/06/24 10:17:50;;;;;;;6.45;4.90;;;26.70;99.90;;;;;;5093107;28;20173;-50
2023/06/24 10:20:25;;;;;;;10.27;4.70;;;;;;;;;;5093063;28;20524;-50
2023/06/24 10:22:51;;;;;;;5.72;4.78;;;26.60;99.90;;;;;;5093161;28;20256;-51
2023/06/24 10:25:17;;;;;;;6.43;4.18;;;26.70;99.90;;;;;;5092877;28;20648;-50
2023/06/24 10:27:43;;;;;;;6.20;4.65;;;26.80;99.90;;;;;;5092851;28;20226;-51
2023/06/24 10:30:19;;;;;;;7.07;5.00;;;27.00;99.90;;;;;;5092941;28;20173;-50
2023/06/24 10:32:44;;;;;;;6.15;4.65;;;26.90;99.90;;;;;;5092972;28;20215;-47
2023/06/24 10:35:29;;;;;;;5.90;4.55;;;27.10;99.90;;;;;;5093064;28;20161;-47
2023/06/24 10:37:59;;;;;;;6.90;4.20;;;;;;;;;;5092670;28;20189;-47
2023/06/24 10:40:35;;;;;;;5.30;4.25;;;27.00;99.90;;;;;;5092048;28;20506;-47
2023/06/24 10:43:25;;;;;;;4.85;4.10;;;27.10;99.90;;;;;;5092954;28;20639;-50
2023/06/24 10:45:55;;;;;;;5.03;3.70;;;27.20;99.90;;;;;;5075002;28;20181;-48
2023/06/24 10:48:21;;;;;;;4.47;4.07;;;27.20;99.90;;;;;;5092390;28;20633;-51
2023/06/24 10:50:50;;;;;;;5.18;4.45;;;27.00;99.90;;;;;;5092372;28;20633;-50
2023/06/24 10:53:18;;;;;;;7.28;4.13;;;27.10;99.90;;;;;;5092071;28;20200;-48
2023/06/24 10:55:44;;;;;;;5.95;3.97;;;27.10;99.90;;;;;;5092670;28;20165;-48
2023/06/24 10:58:12;;;;;;;4.78;4.22;;;27.30;99.90;;;;;;5092487;28;20259;-49
2023/06/24 11:00:43;;;;;;;6.25;4.55;;;27.50;99.90;;;;;;5092269;28;20165;-48
2023/06/24 11:03:15;;;;;;;8.52;4.25;;;27.30;99.90;;;;;;5092480;28;20173;-49
2023/06/24 11:05:42;;;;;;;5.15;3.95;;;27.70;99.90;;;;;;5092497;28;20221;-47
2023/06/24 11:08:09;;;;;;;4.28;3.88;;;27.90;99.90;;;;;;5092074;28;20228;-48
2023/06/24 11:10:43;;;;;;;8.02;4.68;;;27.60;99.90;;;;;;5092171;28;20176;-47
2023/06/24 11:13:08;;;;;;;4.93;4.22;;;27.60;99.90;;;;;;5073863;28;20309;-48
2023/06/24 11:15:34;;;;;;;5.70;4.68;;;27.60;99.90;;;;;;5092112;28;20165;-47
2023/06/24 11:18:02;;;;;;;6.93;4.75;;;;;;;;;;5092484;28;20529;-47
2023/06/24 11:20:28;;;;;;;5.85;5.13;;;27.80;99.90;;;;;;5092575;28;20172;-48
2023/06/24 11:22:54;;;;;;;6.80;4.57;;;;;;;;;;5092257;28;20169;-46
2023/06/24 11:25:21;;;;;;;5.22;4.40;;;27.70;99.90;;;;;;5091917;28;20165;-46
2023/06/24 11:27:49;;;;;;;5.93;4.20;;;27.90;99.90;;;;;;5091878;28;20171;-46
2023/06/24 11:30:16;;;;;;;7.47;4.88;;;27.80;98.80;;;;;;5091783;28;20180;-47
2023/06/24 11:32:43;;;;;;;6.15;4.75;;;27.90;98.70;;;;;;5091661;28;20208;-47
2023/06/24 11:35:11;;;;;;;5.28;4.18;;;28.10;99.90;;;;;;5091744;28;20685;-49
2023/06/24 11:37:36;;;;;;;6.57;4.28;;;28.00;99.70;;;;;;5091645;28;20190;-46
2023/06/24 11:40:04;;;;;;;5.57;4.45;;;28.10;99.90;;;;;;5091687;28;20628;-46
2023/06/24 11:42:30;;;;;;;5.82;4.28;;;28.00;99.90;;;;;;5091994;28;20537;-46
2023/06/24 11:45:04;;;;;;;6.10;4.32;;;28.40;99.90;;;;;;5091808;28;20169;-46
2023/06/24 11:47:36;;;;;;;6.43;4.70;;;;;;;;;;5091987;28;20165;-46
2023/06/24 11:50:02;;;;;;;4.55;4.05;;;28.50;99.90;;;;;;5091703;28;20165;-46
2023/06/24 11:52:48;;;;;;;4.57;4.00;;;28.50;99.60;;;;;;5091006;28;20204;-46
2023/06/24 11:55:24;;;;;;;5.90;4.53;;;28.60;99.90;;;;;;5091756;28;20168;-46
2023/06/24 11:57:58;;;;;;;8.63;4.70;;;28.70;99.40;;;;;;5091597;28;20647;-46
2023/06/24 12:00:25;;;;;;;4.60;3.75;;;;;;;;;;5091610;28;20177;-46
2023/06/24 12:02:53;;;;;;;4.88;3.72;;;28.30;96.80;;;;;;5091039;28;20157;-46
2023/06/24 12:05:46;;;;;;;7.07;4.38;;;28.40;97.60;;;;;;5091424;28;20179;-46
2023/06/24 12:08:15;;;;;;;7.22;3.92;;;28.60;96.60;;;;;;5086744;28;20221;-46
2023/06/24 12:10:40;;;;;;;4.65;3.90;;;29.00;98.30;;;;;;5091130;28;20709;-47
2023/06/24 12:13:08;;;;;;;5.63;3.15;;;28.90;98.80;;;;;;5090091;28;20216;-49
2023/06/24 12:15:33;;;;;;;6.38;3.22;;;28.70;97.90;;;;;;5091123;28;20671;-50
2023/06/24 12:18:00;;;;;;;4.80;3.33;;;28.70;97.70;;;;;;5091523;28;20173;-50
2023/06/24 12:20:26;;;;;;;3.90;3.00;;;28.70;95.50;;;;;;5091017;28;20169;-50
2023/06/24 12:22:52;;;;;;;4.78;3.05;;;;;;;;;;5090963;28;20184;-46
2023/06/24 12:25:18;;;;;;;5.78;3.75;;;28.60;95.80;;;;;;5091303;28;20164;-47
2023/06/24 12:27:44;;;;;;;4.50;3.45;;;28.70;95.90;;;;;;5091293;28;20168;-47
2023/06/24 12:30:11;;;;;;;4.03;3.20;;;28.80;95.10;;;;;;5091424;28;20176;-46
2023/06/24 12:32:37;;;;;;;4.65;3.47;;;28.80;95.20;;;;;;5091025;28;20697;-46
2023/06/24 12:35:03;;;;;;;4.75;2.92;;;28.80;93.90;;;;;;5091020;28;20177;-46
2023/06/24 12:37:32;;;;;;;5.97;3.17;;;28.70;93.30;;;;;;5090828;28;20188;-49
2023/06/24 12:40:03;;;;;;;3.83;3.08;;;29.10;95.70;;;;;;5073681;28;20248;-50
2023/06/24 12:42:29;;;;;;;3.42;3.13;;;;;;;;;;5091288;28;20173;-47
2023/06/24 12:44:55;;;;;;;3.30;2.75;;;29.00;93.50;;;;;;5091251;28;20169;-50
2023/06/24 12:47:21;;;;;;;4.15;2.95;;;29.10;93.50;;;;;;5090754;28;20629;-49
2023/06/24 12:49:47;;;;;;;9.88;3.30;;;;;;;;;;5090710;28;20179;-48
2023/06/24 12:52:14;;;;;;;4.10;2.90;;;29.20;94.30;;;;;;5090032;28;20204;-50
2023/06/24 12:54:40;;;;;;;4.18;2.90;;;29.10;92.20;;;;;;5090825;28;20256;-46